Time;durP1;ratioP1;P1;durP2;ratioP2;P2;SDS_P1;SDS_P2;PMS_P1;PMS_P2;Temp;Humidity;BMP_temperature;BMP_pressure;BME280_temperature;BME280_humidity;BME280_pressure;Samples;Min_cycle;Max_cycle;Signal;HPM_P1;HPM_P2
2022/10/21 00:01:32;;;;;;;21.83;15.67;;;;;;;13.51;100.00;154828.81;5073720;28;20491;-93
2022/10/21 00:04:01;;;;;;;23.00;16.03;;;;;;;13.48;100.00;154822.34;5055468;28;20469;-93
2022/10/21 00:06:27;;;;;;;22.50;15.33;;;;;;;13.47;100.00;154819.78;5048932;28;20446;-93
2022/10/21 00:08:54;;;;;;;21.87;15.63;;;;;;;13.45;100.00;154814.53;5066596;28;20442;-92
2022/10/21 00:11:21;;;;;;;20.53;15.50;;;;;;;13.43;100.00;154809.38;5050696;28;20454;-92
2022/10/21 00:13:47;;;;;;;20.80;15.17;;;;;;;13.42;100.00;154808.06;5052827;28;21067;-93
2022/10/21 00:16:16;;;;;;;21.03;15.63;;;;;;;13.41;100.00;154804.19;5038453;28;20435;-93
2022/10/21 00:18:45;;;;;;;21.03;16.53;;;;;;;13.40;100.00;154802.88;5056010;28;20450;-93
2022/10/21 00:21:14;;;;;;;19.30;16.43;;;;;;;13.38;100.00;154796.38;5055627;28;20541;-93
2022/10/21 00:23:42;;;;;;;18.90;16.10;;;;;;;13.38;100.00;154797.69;5056130;28;20446;-93
2022/10/21 00:26:09;;;;;;;22.10;17.00;;;;;;;13.39;100.00;154799.00;5053828;28;20553;-93
2022/10/21 00:28:36;;;;;;;18.47;16.27;;;;;;;13.36;100.00;154791.22;5065474;28;20455;-93
2022/10/21 00:31:03;;;;;;;18.73;16.20;;;;;;;13.35;100.00;154788.59;5052246;28;20469;-93
2022/10/21 00:33:30;;;;;;;22.73;16.70;;;;;;;13.34;100.00;154787.28;5054314;28;20453;-93
2022/10/21 00:36:01;;;;;;;19.67;15.37;;;;;;;13.34;100.00;154786.03;5068699;28;20449;-93
2022/10/21 00:38:28;;;;;;;25.03;17.10;;;;;;;13.33;100.00;154784.72;5051128;28;20443;-93
2022/10/21 00:40:54;;;;;;;19.40;15.80;;;;;;;13.33;100.00;154784.72;5050314;28;20466;-93
2022/10/21 00:43:21;;;;;;;21.23;15.20;;;;;;;13.32;100.00;154782.13;5068689;28;20431;-93
2022/10/21 00:45:50;;;;;;;17.83;14.97;;;;;;;13.31;100.00;154778.25;5066194;28;20478;-93
2022/10/21 00:48:22;;;;;;;21.53;14.80;;;;;;;13.28;100.00;154771.75;5073014;28;20917;-92
2022/10/21 00:50:52;;;;;;;15.97;14.13;;;;;;;13.31;100.00;154778.25;5070234;28;20496;-93
2022/10/21 00:53:20;;;;;;;21.83;15.83;;;;;;;13.31;100.00;154779.56;5058926;28;20553;-93
2022/10/21 00:55:50;;;;;;;17.27;14.27;;;;;;;13.30;100.00;154776.94;5042778;28;20451;-93
2022/10/21 00:58:19;;;;;;;17.83;14.30;;;;;;;13.30;100.00;154775.63;5073297;28;20488;-92
2022/10/21 01:00:45;;;;;;;16.67;14.30;;;;;;;13.30;100.00;154775.63;5054981;28;20474;-92
2022/10/21 01:03:12;;;;;;;17.10;13.57;;;;;;;13.30;100.00;154775.63;5041924;28;20447;-92
2022/10/21 01:05:39;;;;;;;22.13;14.33;;;;;;;13.31;100.00;154779.56;5052440;28;20484;-93
2022/10/21 01:08:06;;;;;;;16.90;13.57;;;;;;;13.33;100.00;154784.72;5052348;28;20936;-93
2022/10/21 01:10:34;;;;;;;17.70;13.00;;;;;;;13.37;100.00;154795.09;5048503;28;20968;-93
2022/10/21 01:13:11;;;;;;;19.00;14.80;;;;;;;13.37;100.00;154795.09;5072013;28;20468;-92
2022/10/21 01:15:41;;;;;;;21.00;13.80;;;;;;;13.35;100.00;154789.91;5055264;28;20445;-92
2022/10/21 01:18:14;;;;;;;17.33;14.50;;;;;;;13.33;100.00;154784.72;5063350;28;20458;-92
2022/10/21 01:20:58;;;;;;;17.17;14.07;;;;;;;13.32;100.00;154782.13;5049200;28;20487;-92
2022/10/21 01:24:09;;;;;;;17.73;13.43;;;;;;;13.32;100.00;154782.13;5028866;28;20468;-93
2022/10/21 01:26:57;;;;;;;17.40;13.67;;;;;;;13.29;100.00;154774.31;5057964;28;20557;-92
2022/10/21 01:30:10;;;;;;;19.13;14.57;;;;;;;13.31;100.00;154778.25;5078917;28;20928;-92
2022/10/21 01:32:47;;;;;;;14.50;12.47;;;;;;;13.26;100.00;154766.53;5059718;28;20446;-91
2022/10/21 01:35:20;;;;;;;13.43;11.60;;;;;;;13.22;100.00;154754.88;5089265;28;20442;-92
2022/10/21 01:37:53;;;;;;;16.40;13.33;;;;;;;13.21;100.00;154753.56;5065475;28;20516;-93
2022/10/21 01:40:22;;;;;;;16.87;12.80;;;;;;;13.22;100.00;154754.88;5058416;28;20443;-93
2022/10/21 01:42:52;;;;;;;17.00;13.50;;;;;;;13.23;100.00;154757.47;5070720;28;20504;-76
2022/10/21 01:45:23;;;;;;;14.00;12.43;;;;;;;13.22;100.00;154754.88;5071245;28;20466;-76
2022/10/21 01:47:54;;;;;;;18.43;13.03;;;;;;;13.31;100.00;154779.56;5035172;28;20542;-76
2022/10/21 01:50:23;;;;;;;18.90;12.47;;;;;;;13.29;100.00;154773.06;5041350;28;20466;-76
2022/10/21 01:52:52;;;;;;;15.53;11.60;;;;;;;13.28;100.00;154771.75;5066986;28;20440;-76
2022/10/21 01:55:20;;;;;;;17.20;12.00;;;;;;;13.30;100.00;154776.94;5069759;28;20452;-76
2022/10/21 01:57:50;;;;;;;16.80;13.17;;;;;;;13.32;100.00;154782.13;5042977;28;20458;-76
2022/10/21 02:00:17;;;;;;;23.20;11.43;;;;;;;13.32;100.00;154780.81;5053141;28;20781;-76
2022/10/21 02:02:46;;;;;;;17.13;13.97;;;;;;;13.33;100.00;154784.72;5048438;28;20435;-76
2022/10/21 02:05:18;;;;;;;14.20;11.97;;;;;;;13.34;100.00;154787.28;5045169;28;20571;-76
2022/10/21 02:07:44;;;;;;;15.17;11.87;;;;;;;13.36;100.00;154792.53;5038066;28;20567;-76
2022/10/21 02:10:11;;;;;;;19.50;11.77;;;;;;;13.48;100.00;154821.03;5047406;28;20455;-76
2022/10/21 02:12:40;;;;;;;14.93;12.53;;;;;;;13.50;100.00;154826.25;5061143;28;20759;-76
2022/10/21 02:15:10;;;;;;;17.40;11.67;;;;;;;13.52;100.00;154831.44;5054271;28;20454;-76
2022/10/21 02:17:38;;;;;;;14.33;12.30;;;;;;;13.55;100.00;154839.22;5091241;28;20425;-76
2022/10/21 02:20:08;;;;;;;14.30;10.60;;;;;;;13.57;100.00;154845.72;5051834;28;20456;-77
2022/10/21 02:22:36;;;;;;;12.37;11.07;;;;;;;13.58;100.00;154847.03;5070905;28;20537;-77
2022/10/21 02:25:07;;;;;;;13.83;11.37;;;;;;;13.59;100.00;154849.59;5071003;28;20476;-77
2022/10/21 02:27:34;;;;;;;17.67;11.60;;;;;;;13.60;100.00;154852.22;5049886;28;20455;-77
2022/10/21 02:30:01;;;;;;;16.33;11.83;;;;;;;13.61;100.00;154854.81;5056621;28;20461;-77
2022/10/21 02:32:34;;;;;;;16.37;12.00;;;;;;;13.61;100.00;154854.81;5065241;28;20777;-77
2022/10/21 02:35:09;;;;;;;15.00;11.63;;;;;;;13.62;100.00;154858.69;5044502;28;20519;-77
2022/10/21 02:37:42;;;;;;;15.20;12.00;;;;;;;13.63;100.00;154860.00;5040070;28;21056;-77
2022/10/21 02:40:14;;;;;;;13.93;11.23;;;;;;;13.64;100.00;154863.88;5058164;28;20456;-77
2022/10/21 02:42:46;;;;;;;14.50;11.67;;;;;;;13.64;100.00;154862.56;5039490;28;20456;-76
2022/10/21 02:45:13;;;;;;;14.87;11.60;;;;;;;13.65;100.00;154865.19;5052862;28;20567;-77
2022/10/21 02:47:40;;;;;;;15.43;10.70;;;;;;;13.64;100.00;154862.56;5055549;28;20442;-77
2022/10/21 02:50:07;;;;;;;15.10;11.00;;;;;;;13.64;100.00;154862.56;5069288;28;20466;-76
2022/10/21 02:52:34;;;;;;;14.27;12.33;;;;;;;13.63;100.00;154860.00;5074605;28;20904;-76
2022/10/21 02:55:02;;;;;;;13.07;11.57;;;;;;;13.66;100.00;154867.78;5073118;28;20434;-76
2022/10/21 02:57:28;;;;;;;14.27;11.40;;;;;;;13.65;100.00;154865.19;5074201;28;20438;-76
2022/10/21 02:59:55;;;;;;;12.13;10.80;;;;;;;13.65;100.00;154865.19;5052912;28;20454;-76
2022/10/21 03:02:21;;;;;;;14.27;11.30;;;;;;;13.65;100.00;154865.19;5050038;28;20984;-77
2022/10/21 03:04:48;;;;;;;13.93;11.60;;;;;;;13.70;100.00;154879.47;5043479;28;20447;-77
2022/10/21 03:07:15;;;;;;;18.30;11.90;;;;;;;13.70;100.00;154878.16;5049636;28;20796;-77
2022/10/21 03:09:41;;;;;;;15.30;12.40;;;;;;;13.69;100.00;154876.84;5059743;28;20485;-93
2022/10/21 03:12:09;;;;;;;14.10;12.07;;;;;;;13.69;100.00;154876.84;5049698;28;20442;-93
2022/10/21 03:14:36;;;;;;;15.30;12.43;;;;;;;13.70;100.00;154879.47;5034484;28;20431;-92
2022/10/21 03:17:02;;;;;;;15.97;11.97;;;;;;;13.71;100.00;154880.78;5045668;28;20453;-93
2022/10/21 03:19:29;;;;;;;13.17;11.50;;;;;;;13.71;100.00;154880.78;5041289;28;20462;-93
2022/10/21 03:21:56;;;;;;;14.30;11.40;;;;;;;13.68;100.00;154872.97;5048722;28;20455;-93
2022/10/21 03:24:22;;;;;;;18.33;11.73;;;;;;;13.67;100.00;154870.34;5027960;28;20432;-93
2022/10/21 03:26:49;;;;;;;15.30;12.37;;;;;;;13.65;100.00;154865.19;5052801;28;20489;-93
2022/10/21 03:29:17;;;;;;;14.20;12.70;;;;;;;13.61;100.00;154854.81;5053719;28;20962;-93
2022/10/21 03:31:44;;;;;;;14.50;11.87;;;;;;;13.65;100.00;154865.19;5054939;28;20973;-93
2022/10/21 03:34:10;;;;;;;14.60;12.67;;;;;;;13.60;100.00;154852.22;5054607;28;20562;-92
2022/10/21 03:36:37;;;;;;;15.37;13.00;;;;;;;13.59;100.00;154850.91;5051791;28;20451;-93
2022/10/21 03:39:04;;;;;;;14.10;12.60;;;;;;;13.58;100.00;154848.28;5035552;28;20482;-93
2022/10/21 03:41:30;;;;;;;13.80;12.03;;;;;;;13.58;100.00;154847.03;5050102;28;20461;-93
2022/10/21 03:43:57;;;;;;;15.83;13.43;;;;;;;13.58;100.00;154847.03;5053442;28;20431;-93
2022/10/21 03:46:25;;;;;;;17.47;13.40;;;;;;;13.55;100.00;154839.22;5048824;28;20475;-93
2022/10/21 03:48:52;;;;;;;16.60;13.43;;;;;;;13.54;100.00;154836.63;5053901;28;20442;-93
2022/10/21 03:51:18;;;;;;;15.83;13.63;;;;;;;13.52;100.00;154832.75;5052450;28;20454;-93
2022/10/21 03:53:45;;;;;;;18.03;12.97;;;;;;;13.52;100.00;154832.75;5039588;28;20447;-92
2022/10/21 03:56:12;;;;;;;15.57;13.27;;;;;;;13.53;100.00;154835.31;5041535;28;21013;-92
2022/10/21 03:58:39;;;;;;;18.40;14.00;;;;;;;13.54;100.00;154836.63;5044289;28;20467;-93
2022/10/21 04:01:06;;;;;;;15.27;13.23;;;;;;;13.49;100.00;154824.94;5058628;28;20489;-93
2022/10/21 04:03:34;;;;;;;19.63;13.50;;;;;;;13.48;100.00;154821.03;5055011;28;20426;-92
2022/10/21 04:06:01;;;;;;;14.17;12.60;;;;;;;13.48;100.00;154822.34;5055187;28;20478;-92
2022/10/21 04:08:28;;;;;;;22.60;12.73;;;;;;;13.47;100.00;154818.47;5055989;28;20921;-92
2022/10/21 04:10:56;;;;;;;14.97;11.90;;;;;;;13.45;100.00;154813.28;5073926;28;20456;-93
2022/10/21 04:13:23;;;;;;;15.20;12.63;;;;;;;13.44;100.00;154811.97;5066817;28;20434;-92
2022/10/21 04:15:50;;;;;;;19.10;13.63;;;;;;;13.47;100.00;154818.47;5074088;28;20524;-93
2022/10/21 04:18:16;;;;;;;13.07;11.67;;;;;;;13.46;100.00;154815.84;5050337;28;20458;-93
2022/10/21 04:20:44;;;;;;;13.93;12.40;;;;;;;13.44;100.00;154811.97;5054590;28;20458;-93
2022/10/21 04:23:11;;;;;;;15.30;12.30;;;;;;;13.44;100.00;154811.97;5055939;28;20840;-93
2022/10/21 04:25:38;;;;;;;14.23;12.40;;;;;;;13.45;100.00;154814.53;5056382;28;20527;-93
2022/10/21 04:28:04;;;;;;;12.83;11.47;;;;;;;13.44;100.00;154811.97;5053079;28;20457;-92
2022/10/21 04:30:31;;;;;;;13.07;11.20;;;;;;;13.45;100.00;154814.53;5071224;28;20458;-93
2022/10/21 04:32:58;;;;;;;15.13;12.37;;;;;;;13.46;100.00;154817.16;5070550;28;20490;-93
2022/10/21 04:35:24;;;;;;;13.57;11.30;;;;;;;13.45;100.00;154813.28;5062606;28;20488;-93
2022/10/21 04:37:52;;;;;;;17.93;12.17;;;;;;;13.46;100.00;154817.16;5054554;28;20968;-93
2022/10/21 04:40:19;;;;;;;13.30;11.30;;;;;;;13.46;100.00;154815.84;5070607;28;20544;-93
2022/10/21 04:42:47;;;;;;;13.60;11.50;;;;;;;13.48;100.00;154821.03;5073111;28;20537;-93
2022/10/21 04:45:14;;;;;;;12.73;11.20;;;;;;;13.49;100.00;154823.66;5066278;28;20457;-92
2022/10/21 04:47:40;;;;;;;13.23;10.67;;;;;;;13.51;100.00;154828.81;5048908;28;20466;-93
2022/10/21 04:50:08;;;;;;;12.30;8.70;;;;;;;13.53;100.00;154834.06;5048003;28;20447;-93
2022/10/21 04:52:35;;;;;;;13.40;10.23;;;;;;;13.56;100.00;154841.78;5058795;28;20943;-92
2022/10/21 04:55:03;;;;;;;12.73;10.67;;;;;;;13.59;100.00;154849.59;5066050;28;20465;-92
2022/10/21 04:57:30;;;;;;;12.70;9.70;;;;;;;13.61;100.00;154854.81;5069879;28;20521;-92
2022/10/21 04:59:56;;;;;;;12.80;9.60;;;;;;;13.62;100.00;154858.69;5072295;28;20584;-92
2022/10/21 05:02:23;;;;;;;11.53;9.53;;;;;;;13.65;100.00;154865.19;5068849;28;20477;-92
2022/10/21 05:04:50;;;;;;;14.80;9.30;;;;;;;13.69;100.00;154876.84;5054906;28;20854;-93
2022/10/21 05:07:20;;;;;;;15.20;8.33;;;;;;;13.71;100.00;154880.78;5045740;28;20474;-92
2022/10/21 05:09:46;;;;;;;15.80;9.13;;;;;;;13.74;100.00;154888.56;5073763;28;20451;-91
2022/10/21 05:12:14;;;;;;;13.10;8.73;;;;;;;13.78;100.00;154898.91;5072700;28;20449;-91
2022/10/21 05:14:41;;;;;;;10.00;7.93;;;;;;;13.83;100.00;154911.91;5070616;28;20450;-91
2022/10/21 05:17:08;;;;;;;12.07;8.27;;;;;;;13.89;100.00;154927.50;5052373;28;20500;-91
2022/10/21 05:19:35;;;;;;;10.70;7.80;;;;;;;13.88;100.00;154926.19;5035112;28;20868;-91
2022/10/21 05:22:01;;;;;;;11.90;7.87;;;;;;;13.88;100.00;154924.88;5050736;28;20918;-92
2022/10/21 05:24:28;;;;;;;8.90;6.90;;;;;;;13.93;100.00;154937.84;5058159;28;20530;-92
2022/10/21 05:26:55;;;;;;;10.00;6.87;;;;;;;13.94;100.00;154940.47;5049874;28;20475;-93
2022/10/21 05:29:23;;;;;;;9.40;6.40;;;;;;;13.96;100.00;154945.66;5074360;28;20449;-88
2022/10/21 05:31:49;;;;;;;9.90;6.30;;;;;;;13.99;100.00;154953.44;5075288;28;20450;-92
2022/10/21 05:34:16;;;;;;;8.50;7.37;;;;;;;14.00;100.00;154957.31;5055848;28;20468;-92
2022/10/21 05:36:43;;;;;;;9.57;6.93;;;;;;;14.00;100.00;154957.31;5069879;28;20441;-91
2022/10/21 05:39:10;;;;;;;10.90;7.00;;;;;;;14.02;100.00;154961.25;5067500;28;20447;-92
2022/10/21 05:41:37;;;;;;;11.70;7.33;;;;;;;14.05;100.00;154969.03;5059245;28;20434;-92
2022/10/21 05:44:06;;;;;;;9.37;6.73;;;;;;;14.12;100.00;154987.19;5068184;28;21010;-92
2022/10/21 05:46:42;;;;;;;9.90;6.03;;;;;;;14.16;100.00;154997.59;5070971;28;20484;-92
2022/10/21 05:49:09;;;;;;;10.50;6.50;;;;;;;14.14;100.00;154992.38;5080959;28;20551;-92
2022/10/21 05:51:36;;;;;;;11.47;6.07;;;;;;;14.14;100.00;154992.38;5053646;28;20472;-92
2022/10/21 05:54:04;;;;;;;8.80;5.90;;;;;;;14.16;100.00;154996.31;5054415;28;20438;-92
2022/10/21 05:56:33;;;;;;;7.33;5.20;;;;;;;14.17;100.00;155000.19;5069251;28;20457;-92
2022/10/21 05:59:00;;;;;;;9.23;5.40;;;;;;;14.19;100.00;155004.09;5053609;28;20515;-91
2022/10/21 06:01:27;;;;;;;7.13;4.77;;;;;;;14.32;100.00;155039.16;5064338;28;20474;-91
2022/10/21 06:03:55;;;;;;;8.27;5.20;;;;;;;14.39;100.00;155057.38;5046823;28;20439;-91
2022/10/21 06:06:22;;;;;;;7.67;4.50;;;;;;;14.52;100.00;155091.16;5042920;28;21050;-91
2022/10/21 06:08:48;;;;;;;8.47;5.30;;;;;;;14.48;100.00;155079.47;5072556;28;20449;-91
2022/10/21 06:11:17;;;;;;;11.73;5.87;;;;;;;14.46;100.00;155074.25;5039001;28;20454;-92
2022/10/21 06:13:45;;;;;;;11.40;6.50;;;;;;;14.46;100.00;155075.53;5039687;28;20447;-91
2022/10/21 06:16:12;;;;;;;13.33;5.23;;;;;;;14.46;100.00;155075.53;5053025;28;20446;-91
2022/10/21 06:18:39;;;;;;;10.97;6.60;;;;;;;14.43;100.00;155067.75;5053614;28;20948;-91
2022/10/21 06:21:08;;;;;;;9.30;5.90;;;;;;;14.40;100.00;155059.94;5052508;28;20807;-77
2022/10/21 06:23:35;;;;;;;9.47;5.80;;;;;;;14.36;100.00;155049.59;5054537;28;20944;-77
2022/10/21 06:26:04;;;;;;;10.03;6.23;;;;;;;14.37;100.00;155052.19;5073520;28;20437;-77
2022/10/21 06:28:34;;;;;;;9.83;5.07;;;;;;;14.39;100.00;155057.38;5049474;28;20561;-77
2022/10/21 06:31:01;;;;;;;10.87;5.67;;;;;;;14.38;100.00;155054.75;5054028;28;21101;-77
2022/10/21 06:33:27;;;;;;;9.77;5.37;;;;;;;14.40;100.00;155058.69;5071973;28;20528;-77
2022/10/21 06:35:54;;;;;;;8.27;5.53;;;;;;;14.40;100.00;155059.94;5052687;28;20462;-77
2022/10/21 06:38:23;;;;;;;8.03;5.83;;;;;;;14.42;100.00;155065.19;5073490;28;20457;-77
2022/10/21 06:40:49;;;;;;;10.40;5.73;;;;;;;14.44;100.00;155070.38;5062045;28;20497;-77
2022/10/21 06:43:16;;;;;;;7.80;5.67;;;;;;;14.39;100.00;155057.38;5073450;28;20806;-77
2022/10/21 06:45:43;;;;;;;10.50;6.70;;;;;;;14.39;100.00;155057.38;5073375;28;20452;-77
2022/10/21 06:48:12;;;;;;;12.17;5.13;;;;;;;14.39;100.00;155057.38;5055696;28;20560;-77
2022/10/21 06:50:39;;;;;;;12.17;5.87;;;;;;;14.42;100.00;155065.19;5056410;28;20520;-77
2022/10/21 06:53:05;;;;;;;9.03;5.67;;;;;;;14.41;100.00;155062.56;5067197;28;20458;-77
2022/10/21 06:55:33;;;;;;;10.17;5.60;;;;;;;14.44;100.00;155070.38;5046972;28;20456;-77
2022/10/21 06:58:00;;;;;;;10.00;6.87;;;;;;;14.44;100.00;155070.38;5055982;28;20430;-77
2022/10/21 07:00:27;;;;;;;10.20;5.83;;;;;;;14.44;100.00;155069.06;5074470;28;20438;-77
2022/10/21 07:02:54;;;;;;;9.27;5.00;;;;;;;14.46;100.00;155075.53;5052375;28;20451;-77
2022/10/21 07:05:20;;;;;;;8.00;5.67;;;;;;;14.46;100.00;155074.25;5023974;28;20458;-77
2022/10/21 07:07:47;;;;;;;13.83;6.90;;;;;;;14.46;100.00;155075.53;5072496;28;20472;-77
2022/10/21 07:10:14;;;;;;;10.90;8.03;;;;;;;14.45;100.00;155072.97;5056353;28;20955;-77
2022/10/21 07:12:42;;;;;;;11.67;6.00;;;;;;;14.51;100.00;155088.53;5070254;28;20456;-77
2022/10/21 07:15:09;;;;;;;10.50;5.90;;;;;;;14.50;100.00;155084.66;5053551;28;20541;-77
2022/10/21 07:17:36;;;;;;;7.63;4.93;;;;;;;14.52;100.00;155091.16;5072085;28;20447;-77
2022/10/21 07:20:02;;;;;;;8.57;5.73;;;;;;;14.59;100.00;155109.31;5072780;28;20426;-77
2022/10/21 07:22:30;;;;;;;8.40;5.80;;;;;;;14.55;100.00;155097.63;5067522;28;20448;-77
2022/10/21 07:24:57;;;;;;;8.63;6.60;;;;;;;14.53;100.00;155092.47;5071819;28;21025;-77
2022/10/21 07:27:23;;;;;;;10.10;5.87;;;;;;;14.54;100.00;155095.03;5055772;28;20607;-77
2022/10/21 07:29:51;;;;;;;8.17;5.03;;;;;;;14.74;100.00;155147.00;5072641;28;20434;-77
2022/10/21 07:32:18;;;;;;;11.13;4.70;;;;;;;14.77;100.00;155154.81;5070608;28;20472;-77
2022/10/21 07:34:45;;;;;;;9.03;5.67;;;;;;;14.77;100.00;155153.50;5072002;28;20454;-77
2022/10/21 07:37:12;;;;;;;10.37;6.30;;;;;;;14.76;100.00;155150.88;5072907;28;20835;-77
2022/10/21 07:39:38;;;;;;;11.40;6.30;;;;;;;14.71;100.00;155137.91;5068023;28;20450;-77
2022/10/21 07:42:05;;;;;;;12.13;6.43;;;;;;;14.75;100.00;155148.25;5067413;28;20815;-77
2022/10/21 07:44:32;;;;;;;11.93;6.37;;;;;;;14.70;100.00;155136.59;5054620;28;20449;-77
2022/10/21 07:47:00;;;;;;;16.13;7.40;;;;;;;14.74;100.00;155145.69;5067154;28;20527;-77
2022/10/21 07:49:26;;;;;;;13.37;7.90;;;;;;;14.72;100.00;155140.50;5039485;28;20452;-77
2022/10/21 07:51:53;;;;;;;11.20;7.27;;;;;;;14.71;100.00;155137.91;5070745;28;20552;-77
2022/10/21 07:54:20;;;;;;;8.43;7.20;;;;;;;14.69;100.00;155132.72;5047810;28;20455;-77
2022/10/21 07:56:49;;;;;;;13.50;8.77;;;;;;;14.68;100.00;155130.09;5066564;28;20449;-77
2022/10/21 07:59:17;;;;;;;13.10;7.90;;;;;;;14.67;100.00;155127.53;5074213;28;20459;-77
2022/10/21 08:01:46;;;;;;;11.30;7.03;;;;;;;14.64;100.00;155121.00;5074498;28;20508;-77
2022/10/21 08:04:15;;;;;;;10.43;7.80;;;;;;;14.63;100.00;155119.72;5077988;28;20445;-77
2022/10/21 08:06:43;;;;;;;9.47;7.23;;;;;;;14.71;100.00;155137.91;5050789;28;20963;-77
2022/10/21 08:09:09;;;;;;;10.90;7.70;;;;;;;14.79;100.00;155160.00;5056388;28;20437;-77
2022/10/21 08:11:36;;;;;;;13.37;8.63;;;;;;;14.71;100.00;155137.91;5050202;28;20469;-77
2022/10/21 08:14:06;;;;;;;10.40;7.23;;;;;;;14.66;100.00;155124.91;5057826;28;20441;-77
2022/10/21 08:16:33;;;;;;;12.33;8.47;;;;;;;14.57;100.00;155104.13;5080340;28;20461;-77
2022/10/21 08:19:00;;;;;;;11.50;8.17;;;;;;;14.77;100.00;155153.50;5031675;28;20450;-77
2022/10/21 08:21:30;;;;;;;10.40;8.33;;;;;;;14.72;100.00;155141.78;5053137;28;20460;-77
2022/10/21 08:23:56;;;;;;;12.00;8.67;;;;;;;14.71;100.00;155137.91;5051400;28;20434;-77
2022/10/21 08:26:23;;;;;;;11.90;8.10;;;;;;;14.66;100.00;155126.22;5052374;28;20468;-77
2022/10/21 08:28:50;;;;;;;9.00;8.10;;;;;;;14.61;100.00;155113.25;5053556;28;20510;-77
2022/10/21 08:31:18;;;;;;;18.10;10.10;;;;;;;14.59;100.00;155109.31;5054634;28;20455;-78
2022/10/21 08:33:45;;;;;;;17.43;10.03;;;;;;;14.56;100.00;155101.50;5068755;28;20437;-77
2022/10/21 08:36:13;;;;;;;10.93;8.63;;;;;;;14.64;100.00;155122.28;5069438;28;20816;-77
2022/10/21 08:38:41;;;;;;;10.90;9.00;;;;;;;14.59;100.00;155109.31;5070170;28;20450;-77
2022/10/21 08:41:29;;;;;;;10.23;8.53;;;;;;;14.55;100.00;155098.94;5071088;28;20414;-77
2022/10/21 08:43:57;;;;;;;14.53;8.77;;;;;;;14.68;100.00;155130.09;5053676;28;20916;-77
2022/10/21 08:46:27;;;;;;;12.63;9.00;;;;;;;14.61;100.00;155114.50;5068700;28;20438;-77
2022/10/21 08:48:58;;;;;;;16.53;8.50;;;;;;;14.55;100.00;155098.94;5051325;28;20500;-77
2022/10/21 08:51:28;;;;;;;11.23;8.10;;;;;;;14.53;100.00;155093.72;5070311;28;20529;-77
2022/10/21 08:54:00;;;;;;;11.43;7.20;;;;;;;14.52;100.00;155091.16;5071460;28;20446;-77
2022/10/21 08:56:29;;;;;;;10.73;9.60;;;;;;;14.53;100.00;155093.72;5052077;28;20791;-77
2022/10/21 08:58:55;;;;;;;15.83;9.17;;;;;;;14.56;100.00;155101.50;5069278;28;20533;-77
2022/10/21 09:01:26;;;;;;;10.90;8.13;;;;;;;14.59;100.00;155109.31;5048178;28;117118;-77
2022/10/21 09:03:57;;;;;;;11.13;7.57;;;;;;;14.61;100.00;155114.50;5058539;28;20445;-77
2022/10/21 09:06:28;;;;;;;9.70;7.27;;;;;;;14.63;100.00;155118.41;5052091;28;20434;-78
2022/10/21 09:09:14;;;;;;;10.17;7.50;;;;;;;14.64;100.00;155122.28;5040746;28;20817;-77
2022/10/21 09:11:49;;;;;;;9.37;7.97;;;;;;;14.64;100.00;155121.00;5043162;28;20970;-89
2022/10/21 09:14:39;;;;;;;11.10;9.97;;;;;;;14.69;100.00;155132.72;5065135;28;21007;-88
2022/10/21 09:17:17;;;;;;;12.97;9.03;;;;;;;14.72;100.00;155141.78;5053950;28;20442;-89
2022/10/21 09:19:49;;;;;;;12.10;8.50;;;;;;;14.77;100.00;155153.50;5068589;28;20441;-89
2022/10/21 09:22:30;;;;;;;15.30;8.70;;;;;;;14.81;100.00;155163.88;5066628;28;20446;-89
2022/10/21 09:24:59;;;;;;;11.23;8.00;;;;;;;14.83;100.00;155169.06;5072326;28;20541;-88
2022/10/21 09:27:26;;;;;;;10.47;8.77;;;;;;;14.88;100.00;155182.09;5053457;28;20474;-88
2022/10/21 09:29:57;;;;;;;11.50;8.40;;;;;;;14.91;100.00;155189.84;5045701;28;20456;-88
2022/10/21 09:32:26;;;;;;;9.97;6.80;;;;;;;14.96;100.00;155204.13;5070392;28;20458;-88
2022/10/21 09:34:55;;;;;;;9.40;5.83;;;;;;;14.99;100.00;155210.63;5054243;28;20437;-89
2022/10/21 09:37:26;;;;;;;10.37;5.40;;;;;;;15.07;100.00;155231.41;5044084;28;20441;-89
2022/10/21 09:40:01;;;;;;;16.17;8.93;;;;;;;15.14;100.00;155249.66;5065575;28;21011;-89
2022/10/21 09:42:28;;;;;;;11.60;8.60;;;;;;;15.18;100.00;155261.31;5036464;28;20476;-89
2022/10/21 09:44:55;;;;;;;8.73;6.87;;;;;;;15.25;100.00;155279.50;5053407;28;20438;-89
2022/10/21 09:47:22;;;;;;;9.77;7.30;;;;;;;15.22;100.00;155270.44;5052945;28;20465;-90
2022/10/21 09:49:51;;;;;;;13.07;7.40;;;;;;;15.26;100.00;155280.81;5033975;28;20446;-89
2022/10/21 09:52:20;;;;;;;9.43;6.90;;;;;;;15.24;100.00;155275.63;5071738;28;20438;-89
2022/10/21 09:54:47;;;;;;;10.40;6.47;;;;;;;15.23;100.00;155274.31;5051256;28;20445;-89
2022/10/21 09:57:18;;;;;;;9.43;7.03;;;;;;;15.24;100.00;155275.63;5076501;28;20529;-89
2022/10/21 09:59:53;;;;;;;5.27;3.40;;;;;;;15.24;100.00;155275.63;5061602;28;20447;-90
2022/10/21 10:02:28;;;;;;;6.10;3.50;;;;;;;15.23;100.00;155273.00;5068744;28;20491;-89
2022/10/21 10:04:55;;;;;;;8.40;5.97;;;;;;;15.27;100.00;155283.44;5065877;28;20469;-89
2022/10/21 10:07:28;;;;;;;7.00;5.00;;;;;;;15.27;100.00;155284.69;5074579;28;20955;-89
2022/10/21 10:09:55;;;;;;;6.40;3.40;;;;;;;15.29;100.00;155288.63;5056613;28;20524;-89
2022/10/21 10:12:24;;;;;;;7.97;3.60;;;;;;;15.27;100.00;155284.69;5051006;28;20560;-89
2022/10/21 10:14:52;;;;;;;7.00;3.93;;;;;;;15.31;100.00;155293.78;5056156;28;20825;-89
2022/10/21 10:17:21;;;;;;;6.23;4.00;;;;;;;15.33;100.00;155298.97;5055417;28;20493;-89
2022/10/21 10:20:13;;;;;;;5.90;3.70;;;;;;;15.32;100.00;155295.09;5053403;28;20446;-89
2022/10/21 10:22:42;;;;;;;8.00;4.90;;;;;;;15.36;100.00;155305.47;5022883;28;20446;-89
2022/10/21 10:25:20;;;;;;;4.20;3.17;;;;;;;15.33;100.00;155297.72;5073078;28;20449;-89
2022/10/21 10:27:51;;;;;;;5.37;3.50;;;;;;;15.32;100.00;155296.41;5055012;28;20498;-89
2022/10/21 10:30:18;;;;;;;7.63;4.63;;;;;;;15.35;100.00;155304.22;5056913;28;20434;-89
2022/10/21 10:32:46;;;;;;;8.50;4.50;;;;;;;15.39;100.00;155313.28;5063758;28;20461;-89
2022/10/21 10:35:24;;;;;;;5.37;4.33;;;;;;;15.42;100.00;155322.41;5075148;28;20521;-89
2022/10/21 10:37:51;;;;;;;5.53;3.37;;;;;;;15.46;100.00;155331.56;5073795;28;20465;-89
2022/10/21 10:40:22;;;;;;;3.57;2.87;;;;;;;15.52;100.00;155347.13;5069370;28;20852;-89
2022/10/21 10:42:52;;;;;;;4.03;3.17;;;;;;;15.54;100.00;155353.63;5044669;28;20465;-89
2022/10/21 10:45:21;;;;;;;8.43;3.33;;;;;;;15.55;100.00;155356.25;5072142;28;20448;-89
2022/10/21 10:47:52;;;;;;;5.57;3.77;;;;;;;15.63;100.00;155377.03;5056597;28;20496;-89
2022/10/21 10:50:41;;;;;;;6.33;3.93;;;;;;;15.67;100.00;155387.41;5055054;28;21036;-89
2022/10/21 10:53:23;;;;;;;4.67;3.67;;;;;;;15.63;100.00;155377.03;5050874;28;20876;-89
2022/10/21 10:55:53;;;;;;;6.30;4.83;;;;;;;15.63;100.00;155377.03;5055125;28;20489;-89
2022/10/21 10:58:22;;;;;;;5.10;3.23;;;;;;;15.69;100.00;155391.34;5074453;28;20438;-90
2022/10/21 11:00:51;;;;;;;5.10;3.23;;;;;;;15.73;100.00;155401.72;5045551;28;20462;-89
2022/10/21 11:03:22;;;;;;;5.50;3.80;;;;;;;15.73;100.00;155403.03;5063637;28;20912;-89
2022/10/21 11:05:51;;;;;;;5.43;3.93;;;;;;;15.73;100.00;155403.03;5053056;28;20442;-89
2022/10/21 11:08:22;;;;;;;4.80;3.50;;;;;;;15.77;100.00;155412.13;5048675;28;20575;-89
2022/10/21 11:10:52;;;;;;;10.03;4.67;;;;;;;15.83;100.00;155427.75;5053037;28;20918;-89
2022/10/21 11:13:24;;;;;;;8.93;5.13;;;;;;;15.84;100.00;155431.63;5046323;28;20493;-89
2022/10/21 11:15:58;;;;;;;6.70;4.63;;;;;;;15.90;100.00;155445.94;5052759;28;20956;-90